sensor_id;sensor_type;location;lat;lon;timestamp;P1;durP1;ratioP1;P2;durP2;ratioP2
553;SDS011;59;48.778;9.156;2022-11-12T00:02:19;12.73;;;9.33;;
553;SDS011;59;48.778;9.156;2022-11-12T00:04:44;14.03;;;9.43;;
553;SDS011;59;48.778;9.156;2022-11-12T00:07:10;13.23;;;9.70;;
553;SDS011;59;48.778;9.156;2022-11-12T00:09:36;13.07;;;9.67;;
553;SDS011;59;48.778;9.156;2022-11-12T00:12:01;13.47;;;9.83;;
553;SDS011;59;48.778;9.156;2022-11-12T00:14:27;14.03;;;10.10;;
553;SDS011;59;48.778;9.156;2022-11-12T00:16:53;13.00;;;10.53;;
553;SDS011;59;48.778;9.156;2022-11-12T00:19:18;15.80;;;10.20;;
553;SDS011;59;48.778;9.156;2022-11-12T00:21:44;12.50;;;9.83;;
553;SDS011;59;48.778;9.156;2022-11-12T00:24:10;11.63;;;9.63;;
553;SDS011;59;48.778;9.156;2022-11-12T00:26:35;12.00;;;9.70;;
553;SDS011;59;48.778;9.156;2022-11-12T00:29:01;12.73;;;9.30;;
553;SDS011;59;48.778;9.156;2022-11-12T00:31:27;12.50;;;8.97;;
553;SDS011;59;48.778;9.156;2022-11-12T00:33:52;13.10;;;10.23;;
553;SDS011;59;48.778;9.156;2022-11-12T00:36:19;11.13;;;8.93;;
553;SDS011;59;48.778;9.156;2022-11-12T00:38:44;12.73;;;9.40;;
553;SDS011;59;48.778;9.156;2022-11-12T00:41:10;13.10;;;9.60;;
553;SDS011;59;48.778;9.156;2022-11-12T00:43:36;13.40;;;9.47;;
553;SDS011;59;48.778;9.156;2022-11-12T00:46:01;13.33;;;9.90;;
553;SDS011;59;48.778;9.156;2022-11-12T00:48:27;14.30;;;10.17;;
553;SDS011;59;48.778;9.156;2022-11-12T00:51:02;13.70;;;9.33;;
553;SDS011;59;48.778;9.156;2022-11-12T00:53:29;14.73;;;10.20;;
553;SDS011;59;48.778;9.156;2022-11-12T00:56:02;13.57;;;9.80;;
553;SDS011;59;48.778;9.156;2022-11-12T00:58:29;13.40;;;9.47;;
553;SDS011;59;48.778;9.156;2022-11-12T01:00:56;12.30;;;9.23;;
553;SDS011;59;48.778;9.156;2022-11-12T01:03:22;12.40;;;8.90;;
553;SDS011;59;48.778;9.156;2022-11-12T01:05:48;11.17;;;8.67;;
553;SDS011;59;48.778;9.156;2022-11-12T01:08:14;11.17;;;8.50;;
553;SDS011;59;48.778;9.156;2022-11-12T01:10:39;12.80;;;9.50;;
553;SDS011;59;48.778;9.156;2022-11-12T01:13:05;12.20;;;9.27;;
553;SDS011;59;48.778;9.156;2022-11-12T01:15:31;11.57;;;8.90;;
553;SDS011;59;48.778;9.156;2022-11-12T01:17:56;14.13;;;9.23;;
553;SDS011;59;48.778;9.156;2022-11-12T01:20:22;12.57;;;9.47;;
553;SDS011;59;48.778;9.156;2022-11-12T01:22:48;10.27;;;8.03;;
553;SDS011;59;48.778;9.156;2022-11-12T01:25:13;12.80;;;9.37;;
553;SDS011;59;48.778;9.156;2022-11-12T01:27:39;9.97;;;8.00;;
553;SDS011;59;48.778;9.156;2022-11-12T01:30:05;11.90;;;8.60;;
553;SDS011;59;48.778;9.156;2022-11-12T01:32:34;10.80;;;8.57;;
553;SDS011;59;48.778;9.156;2022-11-12T01:35:01;11.33;;;8.60;;
553;SDS011;59;48.778;9.156;2022-11-12T01:37:26;12.13;;;8.20;;
553;SDS011;59;48.778;9.156;2022-11-12T01:39:52;10.40;;;8.20;;
553;SDS011;59;48.778;9.156;2022-11-12T01:42:18;11.50;;;9.47;;
553;SDS011;59;48.778;9.156;2022-11-12T01:44:43;11.27;;;9.27;;
553;SDS011;59;48.778;9.156;2022-11-12T01:47:14;12.13;;;8.57;;
553;SDS011;59;48.778;9.156;2022-11-12T01:52:43;11.17;;;8.77;;
553;SDS011;59;48.778;9.156;2022-11-12T01:55:13;11.53;;;8.67;;
553;SDS011;59;48.778;9.156;2022-11-12T01:57:55;11.20;;;8.70;;
553;SDS011;59;48.778;9.156;2022-11-12T02:00:24;11.53;;;8.93;;
553;SDS011;59;48.778;9.156;2022-11-12T02:02:54;11.70;;;8.13;;
553;SDS011;59;48.778;9.156;2022-11-12T02:05:25;11.30;;;8.37;;
553;SDS011;59;48.778;9.156;2022-11-12T02:07:52;12.97;;;9.37;;
553;SDS011;59;48.778;9.156;2022-11-12T02:10:19;8.17;;;7.50;;
553;SDS011;59;48.778;9.156;2022-11-12T02:12:45;10.77;;;8.40;;
553;SDS011;59;48.778;9.156;2022-11-12T02:15:30;9.10;;;7.57;;
553;SDS011;59;48.778;9.156;2022-11-12T02:17:56;10.93;;;7.90;;
553;SDS011;59;48.778;9.156;2022-11-12T02:20:21;11.37;;;8.47;;
553;SDS011;59;48.778;9.156;2022-11-12T02:22:47;8.70;;;7.60;;
553;SDS011;59;48.778;9.156;2022-11-12T02:25:15;10.70;;;8.70;;
553;SDS011;59;48.778;9.156;2022-11-12T02:27:43;11.53;;;8.47;;
553;SDS011;59;48.778;9.156;2022-11-12T02:30:09;10.97;;;8.50;;
553;SDS011;59;48.778;9.156;2022-11-12T02:32:35;11.13;;;8.10;;
553;SDS011;59;48.778;9.156;2022-11-12T02:35:01;9.37;;;8.03;;
553;SDS011;59;48.778;9.156;2022-11-12T02:37:26;10.33;;;8.30;;
553;SDS011;59;48.778;9.156;2022-11-12T02:39:52;9.80;;;7.77;;
553;SDS011;59;48.778;9.156;2022-11-12T02:42:17;9.97;;;7.50;;
553;SDS011;59;48.778;9.156;2022-11-12T02:44:43;10.17;;;8.70;;
553;SDS011;59;48.778;9.156;2022-11-12T02:47:09;9.80;;;7.50;;
553;SDS011;59;48.778;9.156;2022-11-12T02:49:34;10.27;;;8.03;;
553;SDS011;59;48.778;9.156;2022-11-12T02:52:00;9.30;;;7.70;;
553;SDS011;59;48.778;9.156;2022-11-12T02:54:26;10.13;;;7.70;;
553;SDS011;59;48.778;9.156;2022-11-12T02:56:51;10.37;;;8.13;;
553;SDS011;59;48.778;9.156;2022-11-12T02:59:17;11.53;;;8.30;;
553;SDS011;59;48.778;9.156;2022-11-12T03:01:42;12.20;;;8.53;;
553;SDS011;59;48.778;9.156;2022-11-12T03:04:08;10.10;;;7.20;;
553;SDS011;59;48.778;9.156;2022-11-12T03:06:34;10.87;;;8.20;;
553;SDS011;59;48.778;9.156;2022-11-12T03:08:59;10.47;;;8.03;;
553;SDS011;59;48.778;9.156;2022-11-12T03:11:25;11.20;;;8.10;;
553;SDS011;59;48.778;9.156;2022-11-12T03:13:51;11.60;;;8.00;;
553;SDS011;59;48.778;9.156;2022-11-12T03:16:16;9.43;;;7.60;;
553;SDS011;59;48.778;9.156;2022-11-12T03:18:42;12.07;;;8.40;;
553;SDS011;59;48.778;9.156;2022-11-12T03:21:08;9.43;;;7.10;;
553;SDS011;59;48.778;9.156;2022-11-12T03:23:33;12.70;;;7.73;;
553;SDS011;59;48.778;9.156;2022-11-12T03:26:01;9.93;;;7.33;;
553;SDS011;59;48.778;9.156;2022-11-12T03:28:27;10.17;;;7.17;;
553;SDS011;59;48.778;9.156;2022-11-12T03:30:55;8.73;;;7.00;;
553;SDS011;59;48.778;9.156;2022-11-12T03:33:23;7.93;;;6.90;;
553;SDS011;59;48.778;9.156;2022-11-12T03:35:49;8.80;;;6.93;;
553;SDS011;59;48.778;9.156;2022-11-12T03:38:14;8.10;;;6.20;;
553;SDS011;59;48.778;9.156;2022-11-12T03:40:40;7.03;;;6.43;;
553;SDS011;59;48.778;9.156;2022-11-12T03:43:06;9.70;;;7.00;;
553;SDS011;59;48.778;9.156;2022-11-12T03:45:32;9.13;;;6.20;;
553;SDS011;59;48.778;9.156;2022-11-12T03:47:58;6.87;;;6.23;;
553;SDS011;59;48.778;9.156;2022-11-12T03:50:25;7.17;;;5.87;;
553;SDS011;59;48.778;9.156;2022-11-12T03:52:52;7.10;;;6.50;;
553;SDS011;59;48.778;9.156;2022-11-12T03:55:20;7.07;;;5.70;;
553;SDS011;59;48.778;9.156;2022-11-12T03:57:47;6.67;;;5.80;;
553;SDS011;59;48.778;9.156;2022-11-12T04:00:13;6.77;;;5.93;;
553;SDS011;59;48.778;9.156;2022-11-12T04:02:39;10.43;;;6.80;;
553;SDS011;59;48.778;9.156;2022-11-12T04:05:05;6.63;;;5.60;;
553;SDS011;59;48.778;9.156;2022-11-12T04:07:57;8.80;;;6.60;;
553;SDS011;59;48.778;9.156;2022-11-12T04:10:43;6.53;;;5.50;;
553;SDS011;59;48.778;9.156;2022-11-12T04:13:08;8.77;;;6.43;;
553;SDS011;59;48.778;9.156;2022-11-12T04:18:40;6.47;;;5.80;;
553;SDS011;59;48.778;9.156;2022-11-12T04:21:27;6.40;;;5.53;;
553;SDS011;59;48.778;9.156;2022-11-12T04:24:42;7.10;;;5.73;;
553;SDS011;59;48.778;9.156;2022-11-12T04:27:27;5.83;;;5.20;;
553;SDS011;59;48.778;9.156;2022-11-12T04:29:55;7.27;;;5.77;;
553;SDS011;59;48.778;9.156;2022-11-12T04:32:40;6.70;;;5.37;;
553;SDS011;59;48.778;9.156;2022-11-12T04:35:11;7.70;;;6.60;;
553;SDS011;59;48.778;9.156;2022-11-12T04:37:38;5.40;;;5.10;;
553;SDS011;59;48.778;9.156;2022-11-12T04:40:14;6.43;;;5.03;;
553;SDS011;59;48.778;9.156;2022-11-12T04:43:00;7.23;;;6.00;;
553;SDS011;59;48.778;9.156;2022-11-12T04:45:45;7.50;;;5.57;;
553;SDS011;59;48.778;9.156;2022-11-12T04:48:12;7.30;;;5.73;;
553;SDS011;59;48.778;9.156;2022-11-12T04:50:38;7.60;;;5.60;;
553;SDS011;59;48.778;9.156;2022-11-12T04:53:05;6.73;;;5.33;;
553;SDS011;59;48.778;9.156;2022-11-12T04:55:31;5.47;;;4.77;;
553;SDS011;59;48.778;9.156;2022-11-12T04:57:58;6.03;;;4.97;;
553;SDS011;59;48.778;9.156;2022-11-12T05:00:23;6.20;;;5.17;;
553;SDS011;59;48.778;9.156;2022-11-12T05:02:49;7.60;;;5.37;;
553;SDS011;59;48.778;9.156;2022-11-12T05:05:15;7.00;;;6.00;;
553;SDS011;59;48.778;9.156;2022-11-12T05:07:41;6.03;;;5.17;;
553;SDS011;59;48.778;9.156;2022-11-12T05:10:06;5.80;;;5.33;;
553;SDS011;59;48.778;9.156;2022-11-12T05:12:32;6.30;;;5.20;;
553;SDS011;59;48.778;9.156;2022-11-12T05:14:58;5.60;;;4.70;;
553;SDS011;59;48.778;9.156;2022-11-12T05:17:24;6.83;;;5.63;;
553;SDS011;59;48.778;9.156;2022-11-12T05:19:49;7.63;;;5.43;;
553;SDS011;59;48.778;9.156;2022-11-12T05:22:15;6.10;;;5.23;;
553;SDS011;59;48.778;9.156;2022-11-12T05:24:42;5.63;;;5.07;;
553;SDS011;59;48.778;9.156;2022-11-12T05:27:19;6.67;;;5.60;;
553;SDS011;59;48.778;9.156;2022-11-12T05:29:45;5.43;;;4.90;;
553;SDS011;59;48.778;9.156;2022-11-12T05:32:11;6.00;;;5.33;;
553;SDS011;59;48.778;9.156;2022-11-12T05:34:38;6.70;;;5.40;;
553;SDS011;59;48.778;9.156;2022-11-12T05:37:04;5.23;;;4.93;;
553;SDS011;59;48.778;9.156;2022-11-12T05:39:31;6.00;;;4.77;;
553;SDS011;59;48.778;9.156;2022-11-12T05:41:56;6.40;;;5.20;;
553;SDS011;59;48.778;9.156;2022-11-12T05:44:22;5.90;;;5.13;;
553;SDS011;59;48.778;9.156;2022-11-12T05:46:48;5.13;;;4.50;;
553;SDS011;59;48.778;9.156;2022-11-12T05:49:14;6.80;;;5.60;;
553;SDS011;59;48.778;9.156;2022-11-12T05:51:41;7.13;;;6.20;;
553;SDS011;59;48.778;9.156;2022-11-12T05:54:07;8.33;;;6.00;;
553;SDS011;59;48.778;9.156;2022-11-12T05:56:32;9.23;;;7.40;;
553;SDS011;59;48.778;9.156;2022-11-12T05:58:59;7.70;;;6.30;;
553;SDS011;59;48.778;9.156;2022-11-12T06:01:26;9.23;;;6.80;;
553;SDS011;59;48.778;9.156;2022-11-12T06:03:52;8.37;;;7.20;;
553;SDS011;59;48.778;9.156;2022-11-12T06:06:18;8.07;;;6.70;;
553;SDS011;59;48.778;9.156;2022-11-12T06:08:44;8.23;;;6.70;;
553;SDS011;59;48.778;9.156;2022-11-12T06:11:09;7.70;;;6.17;;
553;SDS011;59;48.778;9.156;2022-11-12T06:13:35;7.50;;;6.07;;
553;SDS011;59;48.778;9.156;2022-11-12T06:16:01;8.53;;;6.90;;
553;SDS011;59;48.778;9.156;2022-11-12T06:18:26;7.70;;;6.13;;
553;SDS011;59;48.778;9.156;2022-11-12T06:20:52;9.33;;;7.00;;
553;SDS011;59;48.778;9.156;2022-11-12T06:23:36;7.90;;;5.80;;
553;SDS011;59;48.778;9.156;2022-11-12T06:26:02;7.30;;;5.60;;
553;SDS011;59;48.778;9.156;2022-11-12T06:28:28;6.17;;;5.50;;
553;SDS011;59;48.778;9.156;2022-11-12T06:30:54;6.30;;;5.30;;
553;SDS011;59;48.778;9.156;2022-11-12T06:33:21;5.30;;;4.70;;
553;SDS011;59;48.778;9.156;2022-11-12T06:35:47;6.10;;;5.10;;
553;SDS011;59;48.778;9.156;2022-11-12T06:38:21;7.47;;;5.33;;
553;SDS011;59;48.778;9.156;2022-11-12T06:40:46;5.40;;;4.77;;
553;SDS011;59;48.778;9.156;2022-11-12T06:43:12;5.50;;;4.90;;
553;SDS011;59;48.778;9.156;2022-11-12T06:45:37;5.33;;;4.57;;
553;SDS011;59;48.778;9.156;2022-11-12T06:48:03;5.17;;;4.60;;
553;SDS011;59;48.778;9.156;2022-11-12T06:50:29;6.10;;;4.90;;
553;SDS011;59;48.778;9.156;2022-11-12T06:52:58;6.30;;;4.97;;
553;SDS011;59;48.778;9.156;2022-11-12T06:55:23;5.33;;;4.60;;
553;SDS011;59;48.778;9.156;2022-11-12T06:57:52;6.80;;;5.10;;
553;SDS011;59;48.778;9.156;2022-11-12T07:00:18;6.20;;;4.93;;
553;SDS011;59;48.778;9.156;2022-11-12T07:02:44;7.20;;;5.43;;
553;SDS011;59;48.778;9.156;2022-11-12T07:05:10;6.70;;;5.30;;
553;SDS011;59;48.778;9.156;2022-11-12T07:07:36;7.97;;;5.53;;
553;SDS011;59;48.778;9.156;2022-11-12T07:10:01;7.13;;;5.83;;
553;SDS011;59;48.778;9.156;2022-11-12T07:12:27;6.33;;;4.83;;
553;SDS011;59;48.778;9.156;2022-11-12T07:14:53;5.60;;;5.20;;
553;SDS011;59;48.778;9.156;2022-11-12T07:17:20;5.47;;;4.80;;
553;SDS011;59;48.778;9.156;2022-11-12T07:19:46;5.70;;;4.90;;
553;SDS011;59;48.778;9.156;2022-11-12T07:22:11;5.33;;;4.90;;
553;SDS011;59;48.778;9.156;2022-11-12T07:24:37;5.73;;;5.33;;
553;SDS011;59;48.778;9.156;2022-11-12T07:27:03;8.43;;;5.60;;
553;SDS011;59;48.778;9.156;2022-11-12T07:29:29;6.60;;;4.93;;
553;SDS011;59;48.778;9.156;2022-11-12T07:31:55;7.60;;;5.13;;
553;SDS011;59;48.778;9.156;2022-11-12T07:34:21;5.97;;;5.27;;
553;SDS011;59;48.778;9.156;2022-11-12T07:36:46;6.40;;;5.53;;
553;SDS011;59;48.778;9.156;2022-11-12T07:39:15;6.90;;;5.63;;
553;SDS011;59;48.778;9.156;2022-11-12T07:41:41;6.90;;;5.60;;
553;SDS011;59;48.778;9.156;2022-11-12T07:44:07;7.00;;;5.63;;
553;SDS011;59;48.778;9.156;2022-11-12T07:46:33;6.63;;;5.20;;
553;SDS011;59;48.778;9.156;2022-11-12T07:48:59;6.63;;;5.43;;
553;SDS011;59;48.778;9.156;2022-11-12T07:51:26;6.33;;;5.20;;
553;SDS011;59;48.778;9.156;2022-11-12T07:53:53;5.23;;;4.90;;
553;SDS011;59;48.778;9.156;2022-11-12T07:56:21;6.67;;;5.43;;
553;SDS011;59;48.778;9.156;2022-11-12T07:58:48;7.23;;;5.03;;
553;SDS011;59;48.778;9.156;2022-11-12T08:01:21;6.30;;;5.23;;
553;SDS011;59;48.778;9.156;2022-11-12T08:03:48;6.10;;;5.40;;
553;SDS011;59;48.778;9.156;2022-11-12T08:06:14;6.50;;;5.13;;
553;SDS011;59;48.778;9.156;2022-11-12T08:08:40;6.90;;;5.30;;
553;SDS011;59;48.778;9.156;2022-11-12T08:11:05;6.30;;;5.80;;
553;SDS011;59;48.778;9.156;2022-11-12T08:13:31;6.20;;;5.00;;
553;SDS011;59;48.778;9.156;2022-11-12T08:15:58;6.00;;;5.00;;
553;SDS011;59;48.778;9.156;2022-11-12T08:18:24;6.87;;;5.83;;
553;SDS011;59;48.778;9.156;2022-11-12T08:20:50;6.63;;;5.07;;
553;SDS011;59;48.778;9.156;2022-11-12T08:23:16;8.17;;;6.50;;
553;SDS011;59;48.778;9.156;2022-11-12T08:25:42;14.37;;;9.10;;
553;SDS011;59;48.778;9.156;2022-11-12T08:28:08;11.63;;;7.53;;
553;SDS011;59;48.778;9.156;2022-11-12T08:30:34;10.00;;;7.50;;
553;SDS011;59;48.778;9.156;2022-11-12T08:33:01;9.50;;;6.73;;
553;SDS011;59;48.778;9.156;2022-11-12T08:35:28;7.00;;;5.57;;
553;SDS011;59;48.778;9.156;2022-11-12T08:37:58;8.20;;;6.37;;
553;SDS011;59;48.778;9.156;2022-11-12T08:40:29;5.90;;;5.10;;
553;SDS011;59;48.778;9.156;2022-11-12T08:42:56;8.33;;;5.93;;
553;SDS011;59;48.778;9.156;2022-11-12T08:45:26;9.63;;;5.80;;
553;SDS011;59;48.778;9.156;2022-11-12T08:47:57;7.20;;;5.30;;
553;SDS011;59;48.778;9.156;2022-11-12T08:50:23;5.60;;;4.93;;
553;SDS011;59;48.778;9.156;2022-11-12T08:52:49;6.73;;;5.10;;
553;SDS011;59;48.778;9.156;2022-11-12T08:55:16;6.10;;;5.20;;
553;SDS011;59;48.778;9.156;2022-11-12T08:57:42;7.27;;;5.40;;
553;SDS011;59;48.778;9.156;2022-11-12T09:00:08;6.47;;;5.07;;
553;SDS011;59;48.778;9.156;2022-11-12T09:02:35;7.33;;;5.03;;
553;SDS011;59;48.778;9.156;2022-11-12T09:05:01;7.13;;;5.83;;
553;SDS011;59;48.778;9.156;2022-11-12T09:07:27;6.80;;;5.70;;
553;SDS011;59;48.778;9.156;2022-11-12T09:09:52;6.70;;;5.70;;
553;SDS011;59;48.778;9.156;2022-11-12T09:12:18;8.33;;;5.77;;
553;SDS011;59;48.778;9.156;2022-11-12T09:14:44;7.27;;;6.27;;
553;SDS011;59;48.778;9.156;2022-11-12T09:17:10;7.87;;;6.13;;
553;SDS011;59;48.778;9.156;2022-11-12T09:19:36;6.20;;;5.70;;
553;SDS011;59;48.778;9.156;2022-11-12T09:22:03;8.83;;;6.60;;
553;SDS011;59;48.778;9.156;2022-11-12T09:24:29;6.97;;;5.60;;
553;SDS011;59;48.778;9.156;2022-11-12T09:26:55;7.47;;;6.30;;
553;SDS011;59;48.778;9.156;2022-11-12T09:29:20;7.97;;;6.47;;
553;SDS011;59;48.778;9.156;2022-11-12T09:31:46;7.63;;;6.13;;
553;SDS011;59;48.778;9.156;2022-11-12T09:34:12;8.07;;;5.67;;
553;SDS011;59;48.778;9.156;2022-11-12T09:36:37;7.93;;;6.17;;
553;SDS011;59;48.778;9.156;2022-11-12T09:39:03;8.40;;;6.40;;
553;SDS011;59;48.778;9.156;2022-11-12T09:41:33;8.37;;;5.87;;
553;SDS011;59;48.778;9.156;2022-11-12T09:44:08;6.30;;;5.50;;
553;SDS011;59;48.778;9.156;2022-11-12T09:46:49;9.20;;;6.70;;
553;SDS011;59;48.778;9.156;2022-11-12T09:49:55;9.03;;;7.27;;
553;SDS011;59;48.778;9.156;2022-11-12T09:52:22;10.53;;;7.80;;
553;SDS011;59;48.778;9.156;2022-11-12T09:54:51;9.10;;;6.70;;
553;SDS011;59;48.778;9.156;2022-11-12T09:57:31;10.00;;;7.37;;
553;SDS011;59;48.778;9.156;2022-11-12T09:59:57;9.43;;;7.07;;
553;SDS011;59;48.778;9.156;2022-11-12T10:02:27;8.87;;;7.40;;
553;SDS011;59;48.778;9.156;2022-11-12T10:10:15;7.73;;;6.33;;
553;SDS011;59;48.778;9.156;2022-11-12T10:19:24;8.23;;;6.37;;
553;SDS011;59;48.778;9.156;2022-11-12T10:22:04;6.80;;;5.60;;
553;SDS011;59;48.778;9.156;2022-11-12T10:24:35;7.93;;;6.33;;
553;SDS011;59;48.778;9.156;2022-11-12T10:27:10;8.23;;;6.53;;
553;SDS011;59;48.778;9.156;2022-11-12T10:29:59;8.03;;;6.23;;
553;SDS011;59;48.778;9.156;2022-11-12T10:32:27;10.73;;;7.70;;
553;SDS011;59;48.778;9.156;2022-11-12T10:34:53;9.20;;;6.50;;
553;SDS011;59;48.778;9.156;2022-11-12T10:37:19;8.83;;;6.37;;
553;SDS011;59;48.778;9.156;2022-11-12T10:40:40;9.50;;;7.30;;
553;SDS011;59;48.778;9.156;2022-11-12T10:45:29;9.50;;;7.00;;
553;SDS011;59;48.778;9.156;2022-11-12T10:47:55;8.73;;;6.43;;
553;SDS011;59;48.778;9.156;2022-11-12T10:50:27;6.63;;;5.97;;
553;SDS011;59;48.778;9.156;2022-11-12T10:52:55;7.30;;;6.30;;
553;SDS011;59;48.778;9.156;2022-11-12T10:55:30;6.80;;;5.53;;
553;SDS011;59;48.778;9.156;2022-11-12T10:58:13;6.07;;;5.47;;
553;SDS011;59;48.778;9.156;2022-11-12T11:03:35;5.60;;;5.00;;
553;SDS011;59;48.778;9.156;2022-11-12T11:08:47;4.70;;;4.43;;
553;SDS011;59;48.778;9.156;2022-11-12T11:13:45;5.77;;;4.77;;
553;SDS011;59;48.778;9.156;2022-11-12T11:16:13;10.57;;;4.87;;
553;SDS011;59;48.778;9.156;2022-11-12T11:18:41;6.30;;;5.00;;
553;SDS011;59;48.778;9.156;2022-11-12T11:21:38;7.03;;;5.03;;
553;SDS011;59;48.778;9.156;2022-11-12T11:24:35;6.27;;;4.80;;
553;SDS011;59;48.778;9.156;2022-11-12T11:30:07;7.00;;;5.57;;
553;SDS011;59;48.778;9.156;2022-11-12T11:38:33;6.67;;;5.40;;
553;SDS011;59;48.778;9.156;2022-11-12T11:44:04;7.37;;;5.60;;
553;SDS011;59;48.778;9.156;2022-11-12T11:57:41;6.40;;;5.50;;
553;SDS011;59;48.778;9.156;2022-11-12T12:00:21;7.83;;;6.13;;
553;SDS011;59;48.778;9.156;2022-11-12T12:02:51;6.83;;;6.07;;
553;SDS011;59;48.778;9.156;2022-11-12T12:08:23;6.63;;;5.33;;
553;SDS011;59;48.778;9.156;2022-11-12T12:16:32;7.33;;;5.53;;
553;SDS011;59;48.778;9.156;2022-11-12T12:21:35;7.10;;;5.70;;
553;SDS011;59;48.778;9.156;2022-11-12T12:24:23;5.63;;;5.20;;
553;SDS011;59;48.778;9.156;2022-11-12T12:26:59;6.50;;;5.60;;
553;SDS011;59;48.778;9.156;2022-11-12T12:32:13;6.93;;;5.53;;
553;SDS011;59;48.778;9.156;2022-11-12T12:35:35;5.63;;;5.00;;
553;SDS011;59;48.778;9.156;2022-11-12T12:37:40;6.33;;;4.97;;
553;SDS011;59;48.778;9.156;2022-11-12T12:40:36;7.03;;;6.43;;
553;SDS011;59;48.778;9.156;2022-11-12T12:43:07;7.37;;;5.20;;
553;SDS011;59;48.778;9.156;2022-11-12T12:45:52;7.47;;;5.50;;
553;SDS011;59;48.778;9.156;2022-11-12T12:48:35;7.53;;;5.63;;
553;SDS011;59;48.778;9.156;2022-11-12T12:51:04;6.10;;;5.10;;
553;SDS011;59;48.778;9.156;2022-11-12T12:53:30;6.07;;;5.20;;
553;SDS011;59;48.778;9.156;2022-11-12T12:55:58;7.17;;;5.80;;
553;SDS011;59;48.778;9.156;2022-11-12T12:58:30;7.20;;;5.23;;
553;SDS011;59;48.778;9.156;2022-11-12T13:00:59;7.87;;;6.10;;
553;SDS011;59;48.778;9.156;2022-11-12T13:06:21;6.07;;;5.03;;
553;SDS011;59;48.778;9.156;2022-11-12T13:09:32;5.77;;;4.83;;
553;SDS011;59;48.778;9.156;2022-11-12T13:16:57;6.83;;;4.40;;
553;SDS011;59;48.778;9.156;2022-11-12T13:42:53;4.60;;;4.23;;
553;SDS011;59;48.778;9.156;2022-11-12T13:45:28;5.90;;;4.63;;
553;SDS011;59;48.778;9.156;2022-11-12T13:47:54;6.10;;;4.40;;
553;SDS011;59;48.778;9.156;2022-11-12T13:50:20;5.53;;;4.50;;
553;SDS011;59;48.778;9.156;2022-11-12T13:52:47;5.70;;;4.63;;
553;SDS011;59;48.778;9.156;2022-11-12T13:55:14;5.27;;;4.20;;
553;SDS011;59;48.778;9.156;2022-11-12T13:57:47;6.60;;;5.00;;
553;SDS011;59;48.778;9.156;2022-11-12T14:02:51;5.70;;;4.57;;
553;SDS011;59;48.778;9.156;2022-11-12T14:05:25;5.70;;;4.67;;
553;SDS011;59;48.778;9.156;2022-11-12T14:17:16;9.37;;;7.20;;
553;SDS011;59;48.778;9.156;2022-11-12T14:24:40;8.10;;;6.40;;
553;SDS011;59;48.778;9.156;2022-11-12T14:29:48;7.83;;;6.10;;
553;SDS011;59;48.778;9.156;2022-11-12T14:32:19;6.80;;;5.40;;
553;SDS011;59;48.778;9.156;2022-11-12T14:34:44;5.97;;;4.63;;
553;SDS011;59;48.778;9.156;2022-11-12T14:37:44;6.27;;;5.40;;
553;SDS011;59;48.778;9.156;2022-11-12T14:40:02;6.50;;;5.43;;
553;SDS011;59;48.778;9.156;2022-11-12T14:42:28;6.10;;;5.30;;
553;SDS011;59;48.778;9.156;2022-11-12T14:44:54;6.77;;;5.70;;
553;SDS011;59;48.778;9.156;2022-11-12T14:47:19;6.00;;;4.80;;
553;SDS011;59;48.778;9.156;2022-11-12T14:49:47;6.60;;;5.17;;
553;SDS011;59;48.778;9.156;2022-11-12T14:52:15;7.67;;;5.40;;
553;SDS011;59;48.778;9.156;2022-11-12T14:54:53;6.93;;;5.40;;
553;SDS011;59;48.778;9.156;2022-11-12T14:57:29;7.33;;;5.90;;
553;SDS011;59;48.778;9.156;2022-11-12T14:59:55;7.03;;;5.40;;
553;SDS011;59;48.778;9.156;2022-11-12T15:05:03;6.73;;;5.70;;
553;SDS011;59;48.778;9.156;2022-11-12T15:07:53;7.27;;;5.60;;
553;SDS011;59;48.778;9.156;2022-11-12T15:10:29;6.60;;;5.53;;
553;SDS011;59;48.778;9.156;2022-11-12T15:13:07;7.00;;;5.60;;
553;SDS011;59;48.778;9.156;2022-11-12T15:15:37;7.43;;;5.87;;
553;SDS011;59;48.778;9.156;2022-11-12T15:18:05;8.50;;;6.80;;
553;SDS011;59;48.778;9.156;2022-11-12T15:20:32;7.50;;;6.00;;
553;SDS011;59;48.778;9.156;2022-11-12T15:22:58;9.13;;;6.37;;
553;SDS011;59;48.778;9.156;2022-11-12T15:25:30;9.27;;;6.27;;
553;SDS011;59;48.778;9.156;2022-11-12T15:28:20;9.47;;;6.90;;
553;SDS011;59;48.778;9.156;2022-11-12T15:33:31;7.80;;;6.43;;
553;SDS011;59;48.778;9.156;2022-11-12T15:35:58;8.67;;;6.93;;
553;SDS011;59;48.778;9.156;2022-11-12T15:38:26;8.70;;;6.63;;
553;SDS011;59;48.778;9.156;2022-11-12T15:40:56;10.13;;;7.40;;
553;SDS011;59;48.778;9.156;2022-11-12T15:43:26;11.77;;;8.43;;
553;SDS011;59;48.778;9.156;2022-11-12T15:45:53;11.57;;;8.57;;
553;SDS011;59;48.778;9.156;2022-11-12T15:48:19;11.30;;;8.10;;
553;SDS011;59;48.778;9.156;2022-11-12T15:50:46;10.37;;;7.83;;
553;SDS011;59;48.778;9.156;2022-11-12T15:53:12;10.93;;;8.53;;
553;SDS011;59;48.778;9.156;2022-11-12T15:55:38;11.20;;;7.63;;
553;SDS011;59;48.778;9.156;2022-11-12T15:58:28;12.43;;;8.50;;
553;SDS011;59;48.778;9.156;2022-11-12T16:00:57;10.87;;;8.10;;
553;SDS011;59;48.778;9.156;2022-11-12T16:03:23;11.10;;;8.10;;
553;SDS011;59;48.778;9.156;2022-11-12T16:05:48;11.20;;;7.87;;
553;SDS011;59;48.778;9.156;2022-11-12T16:08:14;12.17;;;8.57;;
553;SDS011;59;48.778;9.156;2022-11-12T16:10:40;14.30;;;8.67;;
553;SDS011;59;48.778;9.156;2022-11-12T16:13:13;12.90;;;9.83;;
553;SDS011;59;48.778;9.156;2022-11-12T16:15:56;15.73;;;11.27;;
553;SDS011;59;48.778;9.156;2022-11-12T16:18:21;12.97;;;9.80;;
553;SDS011;59;48.778;9.156;2022-11-12T16:20:47;12.50;;;9.60;;
553;SDS011;59;48.778;9.156;2022-11-12T16:23:14;11.47;;;8.97;;
553;SDS011;59;48.778;9.156;2022-11-12T16:25:40;13.73;;;9.10;;
553;SDS011;59;48.778;9.156;2022-11-12T16:28:25;9.83;;;8.03;;
553;SDS011;59;48.778;9.156;2022-11-12T16:30:50;14.07;;;9.17;;
553;SDS011;59;48.778;9.156;2022-11-12T16:33:16;12.27;;;8.80;;
553;SDS011;59;48.778;9.156;2022-11-12T16:35:42;13.90;;;9.17;;
553;SDS011;59;48.778;9.156;2022-11-12T16:38:14;11.70;;;9.10;;
553;SDS011;59;48.778;9.156;2022-11-12T16:40:40;11.00;;;8.70;;
553;SDS011;59;48.778;9.156;2022-11-12T16:43:06;12.07;;;8.80;;
553;SDS011;59;48.778;9.156;2022-11-12T16:45:32;12.73;;;9.63;;
553;SDS011;59;48.778;9.156;2022-11-12T16:48:00;14.23;;;9.60;;
553;SDS011;59;48.778;9.156;2022-11-12T16:50:26;11.67;;;9.57;;
553;SDS011;59;48.778;9.156;2022-11-12T16:52:52;17.43;;;10.27;;
553;SDS011;59;48.778;9.156;2022-11-12T16:55:18;14.30;;;9.90;;
553;SDS011;59;48.778;9.156;2022-11-12T16:57:44;18.40;;;13.30;;
553;SDS011;59;48.778;9.156;2022-11-12T17:00:14;22.37;;;15.50;;
553;SDS011;59;48.778;9.156;2022-11-12T17:02:41;18.60;;;12.57;;
553;SDS011;59;48.778;9.156;2022-11-12T17:05:12;14.33;;;11.87;;
553;SDS011;59;48.778;9.156;2022-11-12T17:07:39;16.13;;;11.07;;
553;SDS011;59;48.778;9.156;2022-11-12T17:10:05;15.10;;;11.50;;
553;SDS011;59;48.778;9.156;2022-11-12T17:12:31;15.37;;;10.70;;
553;SDS011;59;48.778;9.156;2022-11-12T17:14:57;14.13;;;10.63;;
553;SDS011;59;48.778;9.156;2022-11-12T17:17:22;16.60;;;11.30;;
553;SDS011;59;48.778;9.156;2022-11-12T17:19:48;15.77;;;11.00;;
553;SDS011;59;48.778;9.156;2022-11-12T17:22:13;17.23;;;10.87;;
553;SDS011;59;48.778;9.156;2022-11-12T17:24:39;15.37;;;10.10;;
553;SDS011;59;48.778;9.156;2022-11-12T17:27:05;17.20;;;10.80;;
553;SDS011;59;48.778;9.156;2022-11-12T17:29:30;16.17;;;11.60;;
553;SDS011;59;48.778;9.156;2022-11-12T17:31:56;15.33;;;11.83;;
553;SDS011;59;48.778;9.156;2022-11-12T17:34:22;17.20;;;12.47;;
553;SDS011;59;48.778;9.156;2022-11-12T17:36:47;15.93;;;12.80;;
553;SDS011;59;48.778;9.156;2022-11-12T17:39:13;19.40;;;12.63;;
553;SDS011;59;48.778;9.156;2022-11-12T17:41:39;20.17;;;14.23;;
553;SDS011;59;48.778;9.156;2022-11-12T17:44:04;22.83;;;14.23;;
553;SDS011;59;48.778;9.156;2022-11-12T17:46:32;19.33;;;13.67;;
553;SDS011;59;48.778;9.156;2022-11-12T17:48:59;21.33;;;14.10;;
553;SDS011;59;48.778;9.156;2022-11-12T17:51:26;21.63;;;14.53;;
553;SDS011;59;48.778;9.156;2022-11-12T17:53:52;19.03;;;14.07;;
553;SDS011;59;48.778;9.156;2022-11-12T17:56:20;18.53;;;13.10;;
553;SDS011;59;48.778;9.156;2022-11-12T17:58:47;18.30;;;13.80;;
553;SDS011;59;48.778;9.156;2022-11-12T18:01:14;17.67;;;13.07;;
553;SDS011;59;48.778;9.156;2022-11-12T18:03:48;17.87;;;13.63;;
553;SDS011;59;48.778;9.156;2022-11-12T18:06:19;14.83;;;11.77;;
553;SDS011;59;48.778;9.156;2022-11-12T18:08:50;20.27;;;13.07;;